Norman Wells Airport
CYVQ : rendu visible

Aérodrome :











RETROUVEZ-NOUS SUR...

 
LOGIN :

S'inscrire | Disclaimer

   EN    FR    IT 

 









Légende :    VFR   VFR Marginal   IFR   IFR Intensif   IFR Très Intensif
Visi : 
Plafond : 
>= 8 km
>= 3000ft
5 à 8 km
1000 à 3000 ft
1500m à 5 km
500 à 1000 ft
800 à 1500m
200 à 500 ft
< 800m
< 200 ft
Symboles :   Orages  Brouillard  Fortes neiges  Fortes précipitations  Vent > 20 kt






- Altitude de l'aérodrome : 238 ft
- Code IATA : YVQ


CYVQ - Norman Wells

DERNIER METAR :
  • 251900Z 28011KT 15SM SCT005 BKN025 OVC040 04/04 A2941 RMK ST4SC3SC1 VIS NW 5 SLP964

METARs EXPIRÉS :
  • 251800Z 29009KT 15SM SCT005 OVC023 04/04 A2940 RMK ST4SC4 SLP962
  • 251735Z 29012G17KT 15SM BKN005 OVC022 04/04 A2940 RMK ST6SC2 VIS NW-NE 6 SLP961
  • 251700Z 28012KT 10SM -RA BKN004 OVC020 04/04 A2939 RMK ST7SC1 VIS NW-E 4 SLP959
  • 251649Z 29013KT 15SM -RA BKN004 OVC045 04/04 A2939 RMK ST7SC1 VIS NW-E 4 SLP959

TAF AMD TAF CYVQ
Valide du 25 à 19h jusqu'au 26 à 06h UTC


251906Z 2519/2606 28012KT P6SM SCT005 BKN025 OVC040
TEMPO 2519/2520 4SM -RA BR BKN005 OVC020
FM252000 28012KT P6SM FEW006 SCT020 OVC040
TEMPO 2520/2606 6SM -RA BR SCT006 BKN020 OVC040
PROB30 2603/2606 3SM -RA BR OVC006 RMK NXT FCST BY 260000Z
FIR CZEG / Amérique du Nord



MET'MAP, la Météo Aéronautique d'un coup d'oeil ! - Copyright ORBIFLY Décembre 2007 - Disclaimer

ORBIFLY MET'MAP TEAM :

Programmation & Développement : Alexandra Zaïnal
Sur une idée originale de : Baudouin d'Aumeries
Assistance à la programmation : Marc-Olivier Méhu
Soutien technique & logistique : Manuel Goepfert

Contact : metmap@orbifly.com




SOURCES & CREDITS :

   NOAA       Earth
Advisory